Time;durP1;ratioP1;P1;durP2;ratioP2;P2;SDS_P1;SDS_P2;PMS_P1;PMS_P2;Temp;Humidity;BMP_temperature;BMP_pressure;BME280_temperature;BME280_humidity;BME280_pressure;Samples;Min_cycle;Max_cycle;Signal;HPM_P1;HPM_P2
2022/11/22 00:01:41;;;;;;;1.60;0.70;;;20.00;42.60;;;;;;4115650;28;20559;-43
2022/11/22 00:04:04;;;;;;;4.25;0.50;;;20.00;42.70;;;;;;4109140;28;20103;-49
2022/11/22 00:06:26;;;;;;;4.07;1.08;;;20.00;42.90;;;;;;4116443;28;20079;-46
2022/11/22 00:08:49;;;;;;;1.77;0.52;;;20.10;43.00;;;;;;4106928;28;20096;-46
2022/11/22 00:11:11;;;;;;;1.58;0.45;;;20.10;42.90;;;;;;4107206;28;20446;-44
2022/11/22 00:13:34;;;;;;;1.77;0.52;;;20.10;42.90;;;;;;4109203;28;20114;-45
2022/11/22 00:16:04;;;;;;;3.40;0.50;;;20.10;43.00;;;;;;4110225;28;20046;-45
2022/11/22 00:18:27;;;;;;;2.75;0.60;;;20.20;43.00;;;;;;4100254;28;20494;-49
2022/11/22 00:20:49;;;;;;;1.73;0.40;;;20.20;42.90;;;;;;4108829;28;20057;-48
2022/11/22 00:23:12;;;;;;;2.55;0.50;;;20.20;43.70;;;;;;4109414;28;20544;-47
2022/11/22 00:25:34;;;;;;;2.05;0.45;;;20.20;43.10;;;;;;4109572;28;20652;-50
2022/11/22 00:27:57;;;;;;;1.55;0.63;;;20.20;43.00;;;;;;4106743;28;20538;-48
2022/11/22 00:30:20;;;;;;;3.08;0.45;;;20.30;42.90;;;;;;4104339;28;20069;-49
2022/11/22 00:32:42;;;;;;;2.78;0.50;;;20.30;43.00;;;;;;4110787;28;20045;-47
2022/11/22 00:35:05;;;;;;;3.03;0.63;;;20.30;42.90;;;;;;4110459;28;20064;-48
2022/11/22 00:37:28;;;;;;;3.50;0.85;;;20.30;43.10;;;;;;4112262;28;20166;-44
2022/11/22 00:39:50;;;;;;;5.82;0.73;;;20.30;43.00;;;;;;4108444;28;20047;-49
2022/11/22 00:42:13;;;;;;;0.60;0.40;;;20.30;43.00;;;;;;4106947;28;20042;-44
2022/11/22 00:44:35;;;;;;;1.17;0.40;;;20.30;43.00;;;;;;4110370;28;20042;-51
2022/11/22 00:46:58;;;;;;;5.13;0.57;;;20.40;42.90;;;;;;4110764;28;20513;-43
2022/11/22 00:49:20;;;;;;;1.38;0.40;;;20.30;42.90;;;;;;4112012;28;20034;-47
2022/11/22 00:51:43;;;;;;;0.70;0.40;;;20.40;42.90;;;;;;4110265;28;20406;-46
2022/11/22 00:54:06;;;;;;;1.55;0.50;;;20.40;42.80;;;;;;4109594;28;20096;-47
2022/11/22 00:56:28;;;;;;;1.20;0.40;;;20.40;42.80;;;;;;4104753;28;20042;-41
2022/11/22 00:58:51;;;;;;;2.90;0.40;;;20.40;42.70;;;;;;4115056;28;20030;-49
2022/11/22 01:01:13;;;;;;;5.15;0.88;;;20.50;42.70;;;;;;4115909;28;20049;-46
2022/11/22 01:03:36;;;;;;;0.55;0.30;;;20.50;42.90;;;;;;4102121;28;20514;-43
2022/11/22 01:05:58;;;;;;;3.95;0.70;;;20.50;43.00;;;;;;4094603;28;20042;-51
2022/11/22 01:08:21;;;;;;;0.85;0.40;;;20.50;43.00;;;;;;4115924;28;20046;-48
2022/11/22 01:10:43;;;;;;;1.20;0.52;;;20.50;43.10;;;;;;4112334;28;20683;-46
2022/11/22 01:13:06;;;;;;;4.43;0.60;;;20.50;43.10;;;;;;4110600;28;20043;-46
2022/11/22 01:15:28;;;;;;;1.02;0.47;;;20.50;43.00;;;;;;4108447;28;20117;-46
2022/11/22 01:17:51;;;;;;;2.75;0.68;;;20.60;43.00;;;;;;4116500;28;20050;-42
2022/11/22 01:20:14;;;;;;;1.02;0.40;;;20.60;43.00;;;;;;4113584;28;20397;-52
2022/11/22 01:22:37;;;;;;;4.55;0.57;;;20.60;43.00;;;;;;4109779;28;20041;-46
2022/11/22 01:24:59;;;;;;;2.78;0.40;;;20.60;42.90;;;;;;4114880;28;20414;-43
2022/11/22 01:27:22;;;;;;;5.75;1.13;;;20.60;42.90;;;;;;4111258;28;20040;-47
2022/11/22 01:29:45;;;;;;;4.80;0.63;;;20.70;43.10;;;;;;4110557;28;20038;-45
2022/11/22 01:32:07;;;;;;;3.25;0.73;;;20.70;43.10;;;;;;4110207;28;20053;-48
2022/11/22 01:34:31;;;;;;;3.60;0.60;;;20.70;43.10;;;;;;4114636;28;20100;-51
2022/11/22 01:36:54;;;;;;;3.33;0.40;;;20.70;43.10;;;;;;4115634;28;20091;-48
2022/11/22 01:39:16;;;;;;;0.88;0.43;;;20.70;42.90;;;;;;4116351;28;20395;-45
2022/11/22 01:41:39;;;;;;;1.35;0.40;;;20.70;42.80;;;;;;4116392;28;20046;-46
2022/11/22 01:44:22;;;;;;;1.92;0.30;;;20.70;42.90;;;;;;4134724;23;20540;-50
2022/11/22 01:46:47;;;;;;;1.38;0.52;;;20.80;42.80;;;;;;4114030;28;20050;-50
2022/11/22 01:49:29;;;;;;;1.15;0.20;;;20.80;42.70;;;;;;4117654;28;20045;-52
2022/11/22 01:51:54;;;;;;;0.65;0.30;;;20.80;42.70;;;;;;4118215;28;20438;-50
2022/11/22 01:54:22;;;;;;;2.35;0.55;;;20.80;42.60;;;;;;4118159;28;20046;-47
2022/11/22 01:56:49;;;;;;;1.23;0.50;;;20.80;42.70;;;;;;4116658;28;20085;-45
2022/11/22 01:59:16;;;;;;;0.75;0.30;;;20.80;42.80;;;;;;4118174;28;20490;-50
2022/11/22 02:01:39;;;;;;;1.80;0.40;;;20.80;42.80;;;;;;4112391;28;20426;-48
2022/11/22 02:04:03;;;;;;;1.25;0.40;;;20.90;42.80;;;;;;4113932;28;20395;-45
2022/11/22 02:06:36;;;;;;;1.25;0.40;;;20.90;42.80;;;;;;4113631;28;20050;-46
2022/11/22 02:09:12;;;;;;;1.88;0.38;;;20.90;42.70;;;;;;4116798;28;20057;-47
2022/11/22 02:11:37;;;;;;;1.23;0.40;;;20.90;42.80;;;;;;4113778;28;20415;-50
2022/11/22 02:14:01;;;;;;;1.65;0.70;;;20.90;42.80;;;;;;4115523;28;20473;-48
2022/11/22 02:16:24;;;;;;;3.17;0.47;;;21.00;42.90;;;;;;4148643;23;20054;-46
2022/11/22 02:18:46;;;;;;;2.50;0.60;;;21.00;42.90;;;;;;4134255;28;20275;-46
2022/11/22 02:21:09;;;;;;;4.30;0.80;;;21.00;42.70;;;;;;4133358;28;20041;-48
2022/11/22 02:23:44;;;;;;;2.53;0.50;;;21.00;42.50;;;;;;4135444;28;20394;-45
2022/11/22 02:26:07;;;;;;;3.97;0.55;;;21.00;42.40;;;;;;4137510;28;20465;-43
2022/11/22 02:28:34;;;;;;;2.67;0.63;;;21.00;42.40;;;;;;4135924;28;20116;-47
2022/11/22 02:30:57;;;;;;;1.35;0.57;;;21.00;42.40;;;;;;4137054;28;20306;-46
2022/11/22 02:33:20;;;;;;;1.30;0.40;;;21.10;42.30;;;;;;4132088;28;20160;-43
2022/11/22 02:35:43;;;;;;;1.48;0.70;;;21.10;41.90;;;;;;4133626;28;20054;-44
2022/11/22 02:38:16;;;;;;;3.53;0.85;;;21.10;40.60;;;;;;4137301;28;20370;-46
2022/11/22 02:40:50;;;;;;;1.33;0.82;;;21.10;40.10;;;;;;4130218;28;20417;-46
2022/11/22 02:43:29;;;;;;;3.30;0.70;;;21.10;41.20;;;;;;4135201;28;20497;-46
2022/11/22 02:45:51;;;;;;;4.43;0.98;;;21.10;40.90;;;;;;4127357;28;20042;-48
2022/11/22 02:48:16;;;;;;;2.75;0.60;;;21.10;40.80;;;;;;4133694;28;20044;-45
2022/11/22 02:50:40;;;;;;;2.15;0.60;;;21.10;41.00;;;;;;4130575;28;20034;-47
2022/11/22 02:53:02;;;;;;;1.60;0.67;;;21.10;41.00;;;;;;4133165;28;20354;-45
2022/11/22 02:55:25;;;;;;;2.30;0.68;;;21.10;40.90;;;;;;4129972;28;20302;-46
2022/11/22 02:57:47;;;;;;;2.40;0.88;;;21.10;40.80;;;;;;4132185;28;20042;-48
2022/11/22 03:00:11;;;;;;;0.98;0.57;;;21.10;40.80;;;;;;4132667;28;20036;-49
2022/11/22 03:02:33;;;;;;;2.63;0.70;;;21.20;40.80;;;;;;4132095;28;20037;-45
2022/11/22 03:04:56;;;;;;;1.88;0.50;;;21.20;40.80;;;;;;4121194;28;20038;-47
2022/11/22 03:07:18;;;;;;;1.80;0.70;;;21.20;40.70;;;;;;4117917;28;20069;-44
2022/11/22 03:09:41;;;;;;;1.65;0.75;;;21.20;40.70;;;;;;4116189;28;20062;-47
2022/11/22 03:12:03;;;;;;;2.05;0.80;;;21.20;40.70;;;;;;4117508;28;20054;-45
2022/11/22 03:14:26;;;;;;;2.42;0.70;;;21.20;40.60;;;;;;4120199;28;20044;-46
2022/11/22 03:16:48;;;;;;;0.90;0.50;;;21.20;40.60;;;;;;4120092;28;20046;-47
2022/11/22 03:19:11;;;;;;;1.08;0.40;;;21.20;40.60;;;;;;4121689;28;20041;-52
2022/11/22 03:21:33;;;;;;;2.33;0.88;;;21.30;40.60;;;;;;4122622;28;20039;-47
2022/11/22 03:23:56;;;;;;;3.45;0.73;;;21.30;40.50;;;;;;4119484;28;20048;-38
2022/11/22 03:26:18;;;;;;;1.70;0.68;;;21.30;40.50;;;;;;4105091;28;20180;-38
2022/11/22 03:28:41;;;;;;;3.03;1.00;;;21.30;40.60;;;;;;4103955;28;20046;-39
2022/11/22 03:31:07;;;;;;;2.45;0.85;;;21.30;41.00;;;;;;4120593;28;20038;-37
2022/11/22 03:36:52;;;;;;;2.53;1.02;;;21.30;41.20;;;;;;4686600;23;20512;-38
2022/11/22 03:39:15;;;;;;;2.65;1.10;;;21.30;41.50;;;;;;4124433;28;20038;-41
2022/11/22 03:41:38;;;;;;;1.67;0.88;;;21.30;41.30;;;;;;4127478;28;20040;-38
2022/11/22 03:44:00;;;;;;;1.80;0.68;;;21.30;41.20;;;;;;4125879;28;20049;-38
2022/11/22 03:46:23;;;;;;;1.70;0.93;;;21.40;41.00;;;;;;4130434;28;20947;-39
2022/11/22 03:48:46;;;;;;;1.70;0.80;;;21.40;40.70;;;;;;4128320;28;20427;-39
2022/11/22 03:51:09;;;;;;;1.60;0.90;;;21.40;40.60;;;;;;4121794;28;20057;-38
2022/11/22 03:53:32;;;;;;;1.48;0.75;;;21.40;40.40;;;;;;4117594;28;20453;-39
2022/11/22 03:55:55;;;;;;;2.50;0.85;;;21.50;40.30;;;;;;4117861;28;20423;-38
2022/11/22 03:58:17;;;;;;;1.85;0.60;;;21.50;40.20;;;;;;4113824;28;20507;-38
2022/11/22 04:00:40;;;;;;;1.23;0.63;;;21.50;40.00;;;;;;4113645;28;20046;-38
2022/11/22 04:03:02;;;;;;;0.93;0.50;;;21.60;40.10;;;;;;4114189;28;20587;-38
2022/11/22 04:05:25;;;;;;;1.33;0.63;;;21.60;40.10;;;;;;4106635;28;20038;-39
2022/11/22 04:07:48;;;;;;;2.08;0.80;;;21.60;40.00;;;;;;4100309;28;20038;-39
2022/11/22 04:10:10;;;;;;;0.52;0.50;;;21.70;39.90;;;;;;4100157;28;20042;-39
2022/11/22 04:12:33;;;;;;;1.20;0.75;;;21.70;39.90;;;;;;4104173;28;20500;-38
2022/11/22 04:15:08;;;;;;;0.88;0.50;;;21.70;39.80;;;;;;4107444;28;20482;-37
2022/11/22 04:17:39;;;;;;;1.27;0.70;;;21.80;39.80;;;;;;4109047;28;20462;-40
2022/11/22 04:23:07;;;;;;;1.50;0.55;;;21.90;39.70;;;;;;4049065;29;20048;-39
2022/11/22 04:25:34;;;;;;;1.58;0.47;;;21.90;39.60;;;;;;4055179;28;20043;-38
2022/11/22 04:27:57;;;;;;;2.33;0.65;;;21.90;39.50;;;;;;4085673;28;20339;-39
2022/11/22 04:30:19;;;;;;;3.60;0.53;;;22.00;40.30;;;;;;4113342;28;20056;-39
2022/11/22 04:32:45;;;;;;;0.60;0.50;;;22.10;40.70;;;;;;4114235;28;20114;-39
2022/11/22 04:35:08;;;;;;;1.75;0.40;;;22.20;40.90;;;;;;4115779;28;20035;-40
2022/11/22 04:37:30;;;;;;;2.42;0.68;;;22.30;41.00;;;;;;4108061;28;20058;-41
2022/11/22 04:39:53;;;;;;;1.00;0.47;;;22.30;41.00;;;;;;4110676;28;20109;-40
2022/11/22 04:44:56;;;;;;;0.90;0.30;;;22.60;41.30;;;;;;4109734;28;20069;-42
2022/11/22 04:50:00;;;;;;;1.10;0.45;;;22.70;41.10;;;;;;4106385;28;20049;-39
2022/11/22 04:55:03;;;;;;;2.00;0.28;;;23.00;41.30;;;;;;4110359;28;20446;-39
2022/11/22 04:57:26;;;;;;;0.80;0.38;;;23.10;42.00;;;;;;4108528;28;20066;-39
2022/11/22 04:59:48;;;;;;;0.95;0.30;;;23.20;41.30;;;;;;4106867;28;20030;-39
2022/11/22 05:02:11;;;;;;;2.50;0.52;;;23.30;41.30;;;;;;4107708;28;20113;-40
2022/11/22 05:04:34;;;;;;;0.77;0.30;;;23.40;41.30;;;;;;4105952;28;20034;-41
2022/11/22 05:06:56;;;;;;;3.42;0.63;;;23.40;41.30;;;;;;4106485;28;20501;-39
2022/11/22 05:09:19;;;;;;;3.55;0.43;;;23.50;41.30;;;;;;4106606;28;20552;-39
2022/11/22 05:11:41;;;;;;;0.85;0.30;;;23.60;41.20;;;;;;4107521;28;20038;-40
2022/11/22 05:14:04;;;;;;;0.85;0.50;;;23.80;41.80;;;;;;4101011;28;20942;-38
2022/11/22 05:16:26;;;;;;;10.35;1.30;;;23.90;41.10;;;;;;4107508;28;20092;-43
2022/11/22 05:18:57;;;;;;;10.52;1.35;;;24.00;41.00;;;;;;4105707;28;20421;-49
2022/11/22 05:21:20;;;;;;;16.20;2.13;;;24.00;40.90;;;;;;4092743;28;20035;-42
2022/11/22 05:23:54;;;;;;;7.82;1.27;;;24.10;40.90;;;;;;4103064;28;20902;-44
2022/11/22 05:26:17;;;;;;;12.02;1.63;;;24.30;40.90;;;;;;4104240;28;20081;-43
2022/11/22 05:28:40;;;;;;;13.20;1.48;;;24.40;40.70;;;;;;4102863;28;20050;-44
2022/11/22 05:31:13;;;;;;;4.10;0.90;;;24.40;40.70;;;;;;4108460;28;20057;-42
2022/11/22 05:33:38;;;;;;;4.40;1.00;;;24.60;40.70;;;;;;4107339;28;20049;-40
2022/11/22 05:36:00;;;;;;;11.10;1.20;;;24.60;40.70;;;;;;4110670;28;20394;-43
2022/11/22 05:38:23;;;;;;;5.88;0.68;;;24.70;40.80;;;;;;4109264;28;20065;-42
2022/11/22 05:40:45;;;;;;;5.35;1.02;;;24.70;40.90;;;;;;4111958;28;20034;-41
2022/11/22 05:43:08;;;;;;;4.13;0.65;;;24.70;40.90;;;;;;4109657;28;20046;-40
2022/11/22 05:45:30;;;;;;;3.05;0.60;;;24.80;40.90;;;;;;4107222;28;20482;-41
2022/11/22 05:47:53;;;;;;;3.58;0.82;;;24.80;41.10;;;;;;4109202;28;20078;-41
2022/11/22 05:50:15;;;;;;;1.23;0.43;;;24.80;41.00;;;;;;4100266;28;20551;-41
2022/11/22 05:52:38;;;;;;;2.45;0.60;;;24.80;40.90;;;;;;4112244;28;20512;-39
2022/11/22 05:55:01;;;;;;;1.92;0.32;;;24.90;41.00;;;;;;4107820;28;20124;-40
2022/11/22 05:57:23;;;;;;;2.30;0.40;;;24.90;40.90;;;;;;4118576;28;20470;-40
2022/11/22 05:59:46;;;;;;;3.67;0.50;;;25.00;40.90;;;;;;4123276;28;20045;-40
2022/11/22 06:02:08;;;;;;;2.58;0.43;;;25.00;40.80;;;;;;4121932;28;20542;-39
2022/11/22 06:04:31;;;;;;;2.13;0.50;;;25.00;40.80;;;;;;4125204;28;20042;-40
2022/11/22 06:06:53;;;;;;;1.55;0.40;;;25.00;40.80;;;;;;4120964;28;20030;-40
2022/11/22 06:09:16;;;;;;;2.45;0.68;;;25.00;40.70;;;;;;4109534;28;20501;-40
2022/11/22 06:11:40;;;;;;;2.50;0.32;;;25.00;40.70;;;;;;4123513;28;20034;-40
2022/11/22 06:14:02;;;;;;;1.30;0.35;;;25.00;41.20;;;;;;4117928;28;20038;-40
2022/11/22 06:16:26;;;;;;;1.05;0.45;;;25.00;40.70;;;;;;4112962;28;20046;-42
2022/11/22 06:18:49;;;;;;;1.98;0.50;;;25.00;40.70;;;;;;4114762;28;20076;-41
2022/11/22 06:21:14;;;;;;;5.57;0.35;;;25.00;40.70;;;;;;4114124;28;20030;-40
2022/11/22 06:23:37;;;;;;;1.15;0.32;;;25.10;40.80;;;;;;4111772;28;20056;-41
2022/11/22 06:26:08;;;;;;;0.30;0.30;;;25.10;40.90;;;;;;4110787;28;20125;-40
2022/11/22 06:28:32;;;;;;;0.57;0.30;;;25.00;40.80;;;;;;4114444;28;20038;-40
2022/11/22 06:31:00;;;;;;;2.00;0.40;;;25.10;40.70;;;;;;4110681;28;20037;-42
2022/11/22 06:33:22;;;;;;;0.60;0.25;;;25.10;40.90;;;;;;4113109;28;20133;-41
2022/11/22 06:35:45;;;;;;;1.02;0.40;;;25.10;41.10;;;;;;4105970;28;20041;-40
2022/11/22 06:38:07;;;;;;;2.25;0.40;;;25.10;41.00;;;;;;4111022;28;20050;-41
2022/11/22 06:40:30;;;;;;;0.93;0.22;;;25.10;41.00;;;;;;4116881;28;20042;-40
2022/11/22 06:42:52;;;;;;;0.28;0.28;;;25.10;40.90;;;;;;4109731;28;20137;-40
2022/11/22 06:45:15;;;;;;;1.88;0.60;;;25.10;40.80;;;;;;4116810;28;20042;-40
2022/11/22 06:47:38;;;;;;;1.98;0.55;;;25.20;41.00;;;;;;4116648;28;20041;-40
2022/11/22 06:50:00;;;;;;;1.48;0.80;;;25.20;41.00;;;;;;4111700;28;20532;-39
2022/11/22 06:52:23;;;;;;;2.75;0.90;;;25.20;41.00;;;;;;4112643;28;20042;-41
2022/11/22 06:54:45;;;;;;;5.82;1.27;;;25.20;40.90;;;;;;4114602;28;20124;-42
2022/11/22 06:57:08;;;;;;;8.38;2.92;;;25.20;40.90;;;;;;4098621;28;20413;-40
2022/11/22 06:59:31;;;;;;;9.48;4.18;;;25.30;40.60;;;;;;4114134;28;20472;-39
2022/11/22 07:01:53;;;;;;;16.15;8.10;;;25.20;40.10;;;;;;4115651;28;20038;-40
2022/11/22 07:04:16;;;;;;;13.90;6.88;;;25.20;38.60;;;;;;4115442;28;20647;-39
2022/11/22 07:06:39;;;;;;;11.13;6.30;;;25.10;38.00;;;;;;4112558;28;20120;-39
2022/11/22 07:09:04;;;;;;;13.63;6.18;;;25.10;38.00;;;;;;4120024;28;20038;-39
2022/11/22 07:11:29;;;;;;;10.40;5.80;;;25.00;37.80;;;;;;4110997;28;20487;-42
2022/11/22 07:13:52;;;;;;;11.00;5.60;;;24.90;37.90;;;;;;4110098;28;20037;-43
2022/11/22 07:16:17;;;;;;;10.00;5.05;;;24.90;38.00;;;;;;4107276;28;20042;-43
2022/11/22 07:18:41;;;;;;;10.95;5.63;;;24.80;38.30;;;;;;4110137;28;20117;-42
2022/11/22 07:21:06;;;;;;;11.30;5.38;;;24.80;38.40;;;;;;4108139;28;20124;-43
2022/11/22 07:23:29;;;;;;;9.63;4.20;;;24.80;38.50;;;;;;4107203;28;20035;-46
2022/11/22 07:25:52;;;;;;;13.52;4.43;;;24.80;38.60;;;;;;4107039;28;20060;-45
2022/11/22 07:28:15;;;;;;;13.45;5.05;;;24.70;38.50;;;;;;4106609;28;20030;-41
2022/11/22 07:30:38;;;;;;;9.73;4.60;;;24.80;38.80;;;;;;4108843;28;20044;-44
2022/11/22 07:33:01;;;;;;;9.43;3.95;;;24.80;39.20;;;;;;4109220;28;20038;-42
2022/11/22 07:35:23;;;;;;;10.43;3.92;;;24.80;39.40;;;;;;4105369;28;20486;-44
2022/11/22 07:37:46;;;;;;;8.43;3.13;;;24.80;39.80;;;;;;4111450;28;20050;-47
2022/11/22 07:40:10;;;;;;;9.05;3.80;;;24.80;40.00;;;;;;4107324;28;20056;-43
2022/11/22 07:42:32;;;;;;;8.52;3.05;;;24.70;40.10;;;;;;4112245;28;20104;-39
2022/11/22 07:44:55;;;;;;;8.63;3.55;;;24.80;40.30;;;;;;4108390;28;20048;-41
2022/11/22 07:47:17;;;;;;;7.30;3.40;;;24.80;40.30;;;;;;4111268;28;20069;-46
2022/11/22 07:49:40;;;;;;;9.98;3.35;;;24.80;40.40;;;;;;4093737;28;20159;-42
2022/11/22 07:52:03;;;;;;;9.23;2.70;;;24.80;40.50;;;;;;4108823;28;20137;-44
2022/11/22 07:54:25;;;;;;;7.13;3.00;;;24.80;40.50;;;;;;4113786;28;20470;-42
2022/11/22 07:56:48;;;;;;;5.40;2.53;;;24.80;40.60;;;;;;4109316;28;20349;-42
2022/11/22 07:59:10;;;;;;;6.35;2.45;;;24.80;40.70;;;;;;4096663;28;20043;-42
2022/11/22 08:01:33;;;;;;;6.07;2.67;;;24.70;40.70;;;;;;4107337;28;20046;-39
2022/11/22 08:03:56;;;;;;;8.05;2.65;;;24.70;40.60;;;;;;4108988;28;20038;-40
2022/11/22 08:06:19;;;;;;;5.90;3.00;;;24.70;40.90;;;;;;4114911;28;20075;-44
2022/11/22 08:08:43;;;;;;;4.60;1.95;;;24.70;40.80;;;;;;4111166;28;20129;-39
2022/11/22 08:11:06;;;;;;;6.25;2.22;;;24.70;40.90;;;;;;4115958;28;20173;-43
2022/11/22 08:13:29;;;;;;;7.05;2.28;;;24.60;39.80;;;;;;4107689;28;20031;-41
2022/11/22 08:15:52;;;;;;;4.78;2.00;;;24.60;39.30;;;;;;4115256;28;20104;-39
2022/11/22 08:18:15;;;;;;;3.70;1.92;;;24.50;39.00;;;;;;4109097;28;20054;-39
2022/11/22 08:20:38;;;;;;;2.63;1.52;;;24.40;38.80;;;;;;4106113;28;20116;-39
2022/11/22 08:23:00;;;;;;;4.57;1.63;;;24.40;38.70;;;;;;4112652;28;20049;-39
2022/11/22 08:25:23;;;;;;;3.85;1.75;;;24.30;38.80;;;;;;4089931;28;20104;-43
2022/11/22 08:27:45;;;;;;;11.20;2.00;;;24.30;39.90;;;;;;4102621;28;20309;-46
2022/11/22 08:30:10;;;;;;;3.30;1.40;;;24.30;41.50;;;;;;4111590;28;20485;-44
2022/11/22 08:32:32;;;;;;;4.18;1.75;;;24.30;42.20;;;;;;4112107;28;20034;-42
2022/11/22 08:34:58;;;;;;;4.40;1.52;;;24.30;42.50;;;;;;4110967;28;20100;-41
2022/11/22 08:37:20;;;;;;;6.80;1.55;;;24.40;42.60;;;;;;4101615;28;20097;-46
2022/11/22 08:39:43;;;;;;;4.70;1.25;;;24.40;42.70;;;;;;4113679;28;20034;-46
2022/11/22 08:42:06;;;;;;;3.20;1.35;;;24.40;41.60;;;;;;4111267;28;20562;-48
2022/11/22 08:44:28;;;;;;;4.90;1.17;;;24.40;40.30;;;;;;4111079;28;20391;-45
2022/11/22 08:46:55;;;;;;;2.55;1.23;;;24.30;39.70;;;;;;4108048;28;20405;-44
2022/11/22 08:49:17;;;;;;;1.88;1.17;;;24.20;39.40;;;;;;4106657;28;20039;-44
2022/11/22 08:51:43;;;;;;;4.07;1.15;;;24.20;39.20;;;;;;4109608;28;20210;-43
2022/11/22 08:54:06;;;;;;;7.45;1.08;;;24.20;39.20;;;;;;4110526;28;20409;-45
2022/11/22 08:56:28;;;;;;;2.67;1.20;;;24.10;39.10;;;;;;4113658;28;20448;-44
2022/11/22 08:58:51;;;;;;;2.00;0.98;;;24.10;39.10;;;;;;4111202;28;20065;-43
2022/11/22 09:01:20;;;;;;;1.67;0.77;;;24.10;39.10;;;;;;4109412;28;20038;-43
2022/11/22 09:03:43;;;;;;;1.13;0.57;;;24.00;39.10;;;;;;4110526;28;20046;-43
2022/11/22 09:06:07;;;;;;;;;;;24.00;39.10;;;;;;4118424;28;20313;-45
2022/11/22 09:08:30;;;;;;;1.25;0.60;;;24.00;39.10;;;;;;4112128;28;19914;-46
2022/11/22 09:10:52;;;;;;;2.03;0.57;;;23.90;39.00;;;;;;4111408;28;20034;-47
2022/11/22 09:13:15;;;;;;;1.85;0.75;;;23.90;39.00;;;;;;4112275;28;20045;-43
2022/11/22 09:15:38;;;;;;;1.52;0.60;;;23.90;39.00;;;;;;4109911;28;20072;-44
2022/11/22 09:18:02;;;;;;;2.15;0.93;;;23.80;39.00;;;;;;4112352;28;20078;-43
2022/11/22 09:20:24;;;;;;;;;;;23.80;39.00;;;;;;4114610;28;20034;-44
2022/11/22 09:22:46;;;;;;;1.42;0.73;;;23.80;39.10;;;;;;4112071;28;19914;-44
2022/11/22 09:25:09;;;;;;;1.73;0.50;;;23.80;39.10;;;;;;4110400;28;20042;-43
2022/11/22 09:27:33;;;;;;;1.60;0.70;;;23.70;39.00;;;;;;4111414;28;20281;-46
2022/11/22 09:29:55;;;;;;;1.73;0.70;;;23.70;39.10;;;;;;4109628;28;20113;-43
2022/11/22 09:32:18;;;;;;;1.13;0.65;;;23.70;39.10;;;;;;4108909;28;20129;-44
2022/11/22 09:34:41;;;;;;;3.08;1.13;;;23.70;39.20;;;;;;4109722;28;20046;-47
2022/11/22 09:37:04;;;;;;;1.33;0.77;;;23.60;39.20;;;;;;4111660;28;20046;-43
2022/11/22 09:39:26;;;;;;;1.10;0.65;;;23.60;39.20;;;;;;4111960;28;20054;-43
2022/11/22 09:41:57;;;;;;;1.75;0.93;;;23.60;39.20;;;;;;4110814;28;20472;-44
2022/11/22 09:44:48;;;;;;;0.70;0.40;;;23.60;39.20;;;;;;4107061;28;20057;-43
2022/11/22 09:47:41;;;;;;;1.48;0.60;;;23.60;39.20;;;;;;4109701;28;20128;-46
2022/11/22 09:50:28;;;;;;;1.25;0.30;;;23.50;39.20;;;;;;4109692;28;20042;-43
2022/11/22 09:52:56;;;;;;;0.43;0.43;;;23.50;39.30;;;;;;4112921;28;20510;-44
2022/11/22 09:55:41;;;;;;;2.10;0.40;;;23.50;39.30;;;;;;4112555;28;20039;-46
2022/11/22 09:58:29;;;;;;;0.88;0.40;;;23.50;39.40;;;;;;4110313;28;20054;-45
2022/11/22 10:00:57;;;;;;;0.75;0.40;;;23.40;39.30;;;;;;4085810;28;20034;-43
2022/11/22 10:03:44;;;;;;;0.55;0.40;;;23.40;39.40;;;;;;4113662;28;20132;-43
2022/11/22 10:06:13;;;;;;;1.55;0.30;;;23.40;39.40;;;;;;4116310;28;20510;-46
2022/11/22 10:08:38;;;;;;;1.33;0.57;;;23.40;39.40;;;;;;4112066;28;20050;-48
2022/11/22 10:11:04;;;;;;;1.63;0.82;;;23.30;39.40;;;;;;4109508;28;20046;-44
2022/11/22 10:13:44;;;;;;;1.63;0.60;;;23.30;39.50;;;;;;4104884;28;20101;-42
2022/11/22 10:16:30;;;;;;;1.00;0.70;;;23.30;39.60;;;;;;4110382;28;20045;-42
2022/11/22 10:19:18;;;;;;;1.25;0.80;;;23.30;39.60;;;;;;4115542;28;20126;-42
2022/11/22 10:21:41;;;;;;;0.32;0.30;;;23.30;39.70;;;;;;4115912;28;20043;-42
2022/11/22 10:24:04;;;;;;;0.38;0.35;;;23.20;39.60;;;;;;4113009;28;20568;-42
2022/11/22 10:26:46;;;;;;;1.10;0.50;;;23.20;39.60;;;;;;4133074;28;20042;-43
2022/11/22 10:29:55;;;;;;;1.80;0.50;;;23.20;39.80;;;;;;4119463;28;20035;-44
2022/11/22 10:35:47;;;;;;;4.57;0.77;;;23.20;40.70;;;;;;4112412;28;20487;-47
2022/11/22 10:38:37;;;;;;;5.45;0.60;;;23.30;41.10;;;;;;4103854;28;20105;-45
2022/11/22 10:41:30;;;;;;;2.22;0.85;;;23.30;41.30;;;;;;4105252;28;20047;-47
2022/11/22 10:44:07;;;;;;;9.05;1.02;;;23.30;41.40;;;;;;4104030;28;20380;-43
2022/11/22 10:46:30;;;;;;;5.45;0.60;;;23.30;41.60;;;;;;4107263;28;20078;-45
2022/11/22 10:49:39;;;;;;;2.72;0.68;;;23.40;41.80;;;;;;4104830;28;20038;-43
2022/11/22 10:52:08;;;;;;;8.00;1.10;;;23.40;41.80;;;;;;4072154;28;20037;-44
2022/11/22 10:55:01;;;;;;;4.35;0.95;;;23.40;42.00;;;;;;4101980;28;20529;-43
2022/11/22 10:58:14;;;;;;;0.85;0.43;;;23.50;42.00;;;;;;4103992;28;20047;-43
2022/11/22 11:00:43;;;;;;;2.25;0.70;;;23.40;42.00;;;;;;4051711;28;20044;-43
2022/11/22 11:03:31;;;;;;;2.17;0.88;;;23.50;42.20;;;;;;4111107;28;20042;-49
2022/11/22 11:05:59;;;;;;;4.55;0.88;;;23.50;42.20;;;;;;4104177;28;20884;-46
2022/11/22 11:08:43;;;;;;;3.40;0.47;;;23.50;42.20;;;;;;4105092;28;20045;-47
2022/11/22 11:11:06;;;;;;;1.35;0.40;;;23.50;42.20;;;;;;4110459;28;20047;-47
2022/11/22 11:13:57;;;;;;;6.57;0.88;;;23.50;42.20;;;;;;4107600;28;20054;-44
2022/11/22 11:16:28;;;;;;;2.95;0.65;;;23.50;42.50;;;;;;4110245;28;20034;-44
2022/11/22 11:19:21;;;;;;;2.17;0.50;;;23.50;42.40;;;;;;4108776;28;20049;-44
2022/11/22 11:21:44;;;;;;;9.82;1.02;;;23.50;42.50;;;;;;4112618;28;20475;-43
2022/11/22 11:24:15;;;;;;;5.43;0.80;;;23.50;42.60;;;;;;4104124;28;20046;-42
2022/11/22 11:26:38;;;;;;;1.58;0.70;;;23.50;42.60;;;;;;4098847;28;20050;-44
2022/11/22 11:29:19;;;;;;;1.98;0.50;;;23.50;42.60;;;;;;4105190;28;20472;-44
2022/11/22 11:32:04;;;;;;;0.35;0.30;;;23.50;42.60;;;;;;4110673;28;20525;-45
2022/11/22 11:34:29;;;;;;;0.90;0.30;;;23.50;42.50;;;;;;4105113;28;20140;-45
2022/11/22 11:36:55;;;;;;;2.13;0.50;;;23.50;42.50;;;;;;4106413;28;20038;-45
2022/11/22 11:39:23;;;;;;;4.70;0.70;;;23.50;42.60;;;;;;4109691;28;20406;-44
2022/11/22 11:41:46;;;;;;;5.00;0.60;;;23.50;42.60;;;;;;4109219;28;20035;-45
2022/11/22 11:44:33;;;;;;;2.58;0.43;;;23.50;42.80;;;;;;4105875;28;20447;-46
2022/11/22 11:46:55;;;;;;;1.90;0.45;;;23.60;42.80;;;;;;4105112;28;20177;-43
2022/11/22 11:49:24;;;;;;;2.63;0.50;;;23.60;42.80;;;;;;4108817;28;21015;-43
2022/11/22 11:52:27;;;;;;;3.17;0.57;;;23.60;42.70;;;;;;4104426;28;20090;-45
2022/11/22 11:54:53;;;;;;;2.40;0.50;;;23.50;42.60;;;;;;4108176;28;20051;-45
2022/11/22 11:57:35;;;;;;;6.45;0.70;;;23.60;42.70;;;;;;4108375;28;20050;-42
2022/11/22 12:00:00;;;;;;;1.25;0.60;;;23.60;42.50;;;;;;4107295;28;20536;-45
2022/11/22 12:02:42;;;;;;;5.63;0.85;;;23.60;42.70;;;;;;4105815;28;20458;-46
2022/11/22 12:05:31;;;;;;;5.10;0.60;;;23.60;42.70;;;;;;4108537;28;20089;-44
2022/11/22 12:07:54;;;;;;;3.65;0.63;;;23.60;42.80;;;;;;4107293;28;20045;-42
2022/11/22 12:10:48;;;;;;;1.35;0.55;;;23.60;42.70;;;;;;4094234;28;20039;-43
2022/11/22 12:13:14;;;;;;;1.15;0.40;;;23.60;42.70;;;;;;4097903;28;20134;-44
2022/11/22 12:15:54;;;;;;;2.38;0.70;;;23.60;42.70;;;;;;4106917;28;20402;-47
2022/11/22 12:18:51;;;;;;;3.47;0.57;;;23.50;42.80;;;;;;4107541;28;20139;-43
2022/11/22 12:21:38;;;;;;;3.17;0.40;;;23.50;42.80;;;;;;4108268;28;20529;-44
2022/11/22 12:24:34;;;;;;;2.05;0.50;;;23.50;42.70;;;;;;4107301;28;20073;-48
2022/11/22 12:26:57;;;;;;;9.98;0.88;;;23.50;42.90;;;;;;4104408;28;20131;-42
2022/11/22 12:29:19;;;;;;;3.40;0.40;;;23.50;42.90;;;;;;4104527;28;20038;-43
2022/11/22 12:32:05;;;;;;;1.90;0.50;;;23.50;43.00;;;;;;4105329;28;20038;-43
2022/11/22 12:34:45;;;;;;;3.95;0.50;;;23.50;42.90;;;;;;4107289;28;20153;-43
2022/11/22 12:37:19;;;;;;;4.97;0.90;;;23.50;42.90;;;;;;4104051;28;20411;-43
2022/11/22 12:39:49;;;;;;;2.95;0.40;;;23.50;42.90;;;;;;4106323;28;20041;-45
2022/11/22 12:42:21;;;;;;;1.67;0.65;;;23.50;43.00;;;;;;4107366;28;20531;-45
2022/11/22 12:44:53;;;;;;;5.80;0.77;;;23.50;43.00;;;;;;4107357;28;20042;-42
2022/11/22 12:47:28;;;;;;;0.80;0.43;;;23.50;43.00;;;;;;4109105;28;20455;-46
2022/11/22 12:50:05;;;;;;;4.97;0.60;;;23.40;43.00;;;;;;4107445;28;20030;-42
2022/11/22 12:53:15;;;;;;;2.83;0.88;;;23.40;43.20;;;;;;4106419;28;20042;-46
2022/11/22 12:55:44;;;;;;;3.50;0.73;;;23.40;43.30;;;;;;4027755;29;20045;-44
2022/11/22 12:58:13;;;;;;;6.40;0.60;;;23.40;43.30;;;;;;4105836;28;20057;-46
2022/11/22 13:00:41;;;;;;;2.95;0.57;;;23.40;43.30;;;;;;4113987;28;20047;-45
2022/11/22 13:03:26;;;;;;;0.73;0.55;;;23.40;43.20;;;;;;4116867;28;20278;-47